sensor_id;sensor_type;location;lat;lon;timestamp;P1;durP1;ratioP1;P2;durP2;ratioP2
10418;SDS011;5256;48.728;9.140;2024-01-07T00:00:27;0.80;;;0.80;;
10418;SDS011;5256;48.728;9.140;2024-01-07T00:02:55;0.70;;;0.70;;
10418;SDS011;5256;48.728;9.140;2024-01-07T00:05:20;0.80;;;0.80;;
10418;SDS011;5256;48.728;9.140;2024-01-07T00:07:46;0.83;;;0.83;;
10418;SDS011;5256;48.728;9.140;2024-01-07T00:10:13;0.90;;;0.90;;
10418;SDS011;5256;48.728;9.140;2024-01-07T00:12:38;0.80;;;0.80;;
10418;SDS011;5256;48.728;9.140;2024-01-07T00:15:04;0.80;;;0.80;;
10418;SDS011;5256;48.728;9.140;2024-01-07T00:17:30;0.80;;;0.80;;
10418;SDS011;5256;48.728;9.140;2024-01-07T00:19:56;0.70;;;0.70;;
10418;SDS011;5256;48.728;9.140;2024-01-07T00:22:21;0.90;;;0.90;;
10418;SDS011;5256;48.728;9.140;2024-01-07T00:24:47;0.80;;;0.80;;
10418;SDS011;5256;48.728;9.140;2024-01-07T00:27:12;0.70;;;0.70;;
10418;SDS011;5256;48.728;9.140;2024-01-07T00:29:38;0.80;;;0.80;;
10418;SDS011;5256;48.728;9.140;2024-01-07T00:32:03;0.87;;;0.87;;
10418;SDS011;5256;48.728;9.140;2024-01-07T00:34:29;0.80;;;0.80;;
10418;SDS011;5256;48.728;9.140;2024-01-07T00:36:54;0.80;;;0.80;;
10418;SDS011;5256;48.728;9.140;2024-01-07T00:39:20;0.80;;;0.80;;
10418;SDS011;5256;48.728;9.140;2024-01-07T00:41:46;0.90;;;0.90;;
10418;SDS011;5256;48.728;9.140;2024-01-07T00:44:12;0.80;;;0.80;;
10418;SDS011;5256;48.728;9.140;2024-01-07T00:46:37;0.80;;;0.80;;
10418;SDS011;5256;48.728;9.140;2024-01-07T00:49:03;0.90;;;0.90;;
10418;SDS011;5256;48.728;9.140;2024-01-07T00:51:29;0.80;;;0.80;;
10418;SDS011;5256;48.728;9.140;2024-01-07T00:53:54;0.80;;;0.80;;
10418;SDS011;5256;48.728;9.140;2024-01-07T00:56:20;0.70;;;0.70;;
10418;SDS011;5256;48.728;9.140;2024-01-07T00:58:45;0.80;;;0.80;;
10418;SDS011;5256;48.728;9.140;2024-01-07T01:01:11;0.80;;;0.80;;
10418;SDS011;5256;48.728;9.140;2024-01-07T01:03:36;0.80;;;0.80;;
10418;SDS011;5256;48.728;9.140;2024-01-07T01:06:02;0.90;;;0.90;;
10418;SDS011;5256;48.728;9.140;2024-01-07T01:08:28;0.70;;;0.70;;
10418;SDS011;5256;48.728;9.140;2024-01-07T01:10:54;0.80;;;0.80;;
10418;SDS011;5256;48.728;9.140;2024-01-07T01:13:21;0.70;;;0.70;;
10418;SDS011;5256;48.728;9.140;2024-01-07T01:15:47;0.93;;;0.93;;
10418;SDS011;5256;48.728;9.140;2024-01-07T01:18:12;0.70;;;0.70;;
10418;SDS011;5256;48.728;9.140;2024-01-07T01:20:38;0.73;;;0.73;;
10418;SDS011;5256;48.728;9.140;2024-01-07T01:23:04;0.80;;;0.80;;
10418;SDS011;5256;48.728;9.140;2024-01-07T01:25:29;0.83;;;0.83;;
10418;SDS011;5256;48.728;9.140;2024-01-07T01:27:55;0.80;;;0.80;;
10418;SDS011;5256;48.728;9.140;2024-01-07T01:30:21;0.80;;;0.80;;
10418;SDS011;5256;48.728;9.140;2024-01-07T01:32:47;0.90;;;0.90;;
10418;SDS011;5256;48.728;9.140;2024-01-07T01:35:13;0.80;;;0.80;;
10418;SDS011;5256;48.728;9.140;2024-01-07T01:37:38;0.80;;;0.80;;
10418;SDS011;5256;48.728;9.140;2024-01-07T01:40:04;0.80;;;0.80;;
10418;SDS011;5256;48.728;9.140;2024-01-07T01:42:30;0.90;;;0.90;;
10418;SDS011;5256;48.728;9.140;2024-01-07T01:44:55;0.80;;;0.80;;
10418;SDS011;5256;48.728;9.140;2024-01-07T01:47:26;0.80;;;0.80;;
10418;SDS011;5256;48.728;9.140;2024-01-07T01:49:53;0.80;;;0.80;;
10418;SDS011;5256;48.728;9.140;2024-01-07T01:52:18;0.90;;;0.90;;
10418;SDS011;5256;48.728;9.140;2024-01-07T01:54:45;0.80;;;0.80;;
10418;SDS011;5256;48.728;9.140;2024-01-07T01:57:13;0.93;;;0.93;;
10418;SDS011;5256;48.728;9.140;2024-01-07T01:59:44;0.90;;;0.90;;
10418;SDS011;5256;48.728;9.140;2024-01-07T02:02:09;1.00;;;1.00;;
10418;SDS011;5256;48.728;9.140;2024-01-07T02:04:35;1.07;;;1.07;;
10418;SDS011;5256;48.728;9.140;2024-01-07T02:07:01;1.00;;;1.00;;
10418;SDS011;5256;48.728;9.140;2024-01-07T02:09:27;0.90;;;0.90;;
10418;SDS011;5256;48.728;9.140;2024-01-07T02:12:02;1.00;;;1.00;;
10418;SDS011;5256;48.728;9.140;2024-01-07T02:14:28;1.00;;;1.00;;
10418;SDS011;5256;48.728;9.140;2024-01-07T02:16:54;1.20;;;1.20;;
10418;SDS011;5256;48.728;9.140;2024-01-07T02:19:20;1.00;;;1.00;;
10418;SDS011;5256;48.728;9.140;2024-01-07T02:21:47;1.10;;;1.10;;
10418;SDS011;5256;48.728;9.140;2024-01-07T02:24:15;0.93;;;0.93;;
10418;SDS011;5256;48.728;9.140;2024-01-07T02:26:41;0.90;;;0.90;;
10418;SDS011;5256;48.728;9.140;2024-01-07T02:29:06;0.80;;;0.80;;
10418;SDS011;5256;48.728;9.140;2024-01-07T02:31:32;0.80;;;0.80;;
10418;SDS011;5256;48.728;9.140;2024-01-07T02:33:57;0.80;;;0.80;;
10418;SDS011;5256;48.728;9.140;2024-01-07T02:36:23;0.80;;;0.80;;
10418;SDS011;5256;48.728;9.140;2024-01-07T02:38:48;0.77;;;0.77;;
10418;SDS011;5256;48.728;9.140;2024-01-07T02:41:14;0.90;;;0.90;;
10418;SDS011;5256;48.728;9.140;2024-01-07T02:43:39;0.80;;;0.80;;
10418;SDS011;5256;48.728;9.140;2024-01-07T02:46:05;0.70;;;0.70;;
10418;SDS011;5256;48.728;9.140;2024-01-07T02:48:30;0.80;;;0.80;;
10418;SDS011;5256;48.728;9.140;2024-01-07T02:50:56;0.80;;;0.80;;
10418;SDS011;5256;48.728;9.140;2024-01-07T02:53:21;0.80;;;0.80;;
10418;SDS011;5256;48.728;9.140;2024-01-07T02:55:47;0.80;;;0.80;;
10418;SDS011;5256;48.728;9.140;2024-01-07T02:58:13;0.70;;;0.70;;
10418;SDS011;5256;48.728;9.140;2024-01-07T03:00:38;0.70;;;0.70;;
10418;SDS011;5256;48.728;9.140;2024-01-07T03:03:04;0.70;;;0.70;;
10418;SDS011;5256;48.728;9.140;2024-01-07T03:05:29;0.80;;;0.80;;
10418;SDS011;5256;48.728;9.140;2024-01-07T03:07:58;0.70;;;0.70;;
10418;SDS011;5256;48.728;9.140;2024-01-07T03:10:24;0.70;;;0.70;;
10418;SDS011;5256;48.728;9.140;2024-01-07T03:12:50;0.70;;;0.70;;
10418;SDS011;5256;48.728;9.140;2024-01-07T03:15:15;0.80;;;0.80;;
10418;SDS011;5256;48.728;9.140;2024-01-07T03:17:41;0.70;;;0.70;;
10418;SDS011;5256;48.728;9.140;2024-01-07T03:20:07;0.70;;;0.70;;
10418;SDS011;5256;48.728;9.140;2024-01-07T03:22:33;0.80;;;0.80;;
10418;SDS011;5256;48.728;9.140;2024-01-07T03:24:59;0.80;;;0.80;;
10418;SDS011;5256;48.728;9.140;2024-01-07T03:27:24;0.80;;;0.80;;
10418;SDS011;5256;48.728;9.140;2024-01-07T03:29:50;0.80;;;0.80;;
10418;SDS011;5256;48.728;9.140;2024-01-07T03:32:16;0.87;;;0.87;;
10418;SDS011;5256;48.728;9.140;2024-01-07T03:34:42;0.80;;;0.80;;
10418;SDS011;5256;48.728;9.140;2024-01-07T03:37:08;0.80;;;0.80;;
10418;SDS011;5256;48.728;9.140;2024-01-07T03:39:34;0.80;;;0.80;;
10418;SDS011;5256;48.728;9.140;2024-01-07T03:41:59;0.70;;;0.70;;
10418;SDS011;5256;48.728;9.140;2024-01-07T03:44:25;0.83;;;0.83;;
10418;SDS011;5256;48.728;9.140;2024-01-07T03:46:51;0.80;;;0.80;;
10418;SDS011;5256;48.728;9.140;2024-01-07T03:49:16;0.80;;;0.80;;
10418;SDS011;5256;48.728;9.140;2024-01-07T03:51:45;0.90;;;0.90;;
10418;SDS011;5256;48.728;9.140;2024-01-07T03:54:11;0.80;;;0.80;;
10418;SDS011;5256;48.728;9.140;2024-01-07T03:56:36;0.90;;;0.90;;
10418;SDS011;5256;48.728;9.140;2024-01-07T03:59:02;0.70;;;0.70;;
10418;SDS011;5256;48.728;9.140;2024-01-07T04:01:27;0.80;;;0.80;;
10418;SDS011;5256;48.728;9.140;2024-01-07T04:03:53;0.90;;;0.90;;
10418;SDS011;5256;48.728;9.140;2024-01-07T04:06:18;0.90;;;0.90;;
10418;SDS011;5256;48.728;9.140;2024-01-07T04:08:44;0.80;;;0.80;;
10418;SDS011;5256;48.728;9.140;2024-01-07T04:11:09;0.90;;;0.90;;
10418;SDS011;5256;48.728;9.140;2024-01-07T04:13:35;0.90;;;0.90;;
10418;SDS011;5256;48.728;9.140;2024-01-07T04:16:01;0.83;;;0.83;;
10418;SDS011;5256;48.728;9.140;2024-01-07T04:18:26;0.80;;;0.80;;
10418;SDS011;5256;48.728;9.140;2024-01-07T04:20:52;0.90;;;0.90;;
10418;SDS011;5256;48.728;9.140;2024-01-07T04:23:17;0.90;;;0.90;;
10418;SDS011;5256;48.728;9.140;2024-01-07T04:25:43;0.90;;;0.90;;
10418;SDS011;5256;48.728;9.140;2024-01-07T04:28:10;0.90;;;0.90;;
10418;SDS011;5256;48.728;9.140;2024-01-07T04:30:36;0.80;;;0.80;;
10418;SDS011;5256;48.728;9.140;2024-01-07T04:33:01;0.90;;;0.90;;
10418;SDS011;5256;48.728;9.140;2024-01-07T04:35:27;0.90;;;0.90;;
10418;SDS011;5256;48.728;9.140;2024-01-07T04:37:52;0.90;;;0.90;;
10418;SDS011;5256;48.728;9.140;2024-01-07T04:40:18;0.80;;;0.80;;
10418;SDS011;5256;48.728;9.140;2024-01-07T04:42:43;0.90;;;0.90;;
10418;SDS011;5256;48.728;9.140;2024-01-07T04:45:09;0.90;;;0.90;;
10418;SDS011;5256;48.728;9.140;2024-01-07T04:47:34;0.90;;;0.90;;
10418;SDS011;5256;48.728;9.140;2024-01-07T04:50:00;0.83;;;0.83;;
10418;SDS011;5256;48.728;9.140;2024-01-07T04:52:25;0.90;;;0.90;;
10418;SDS011;5256;48.728;9.140;2024-01-07T04:54:51;0.80;;;0.80;;
10418;SDS011;5256;48.728;9.140;2024-01-07T04:57:21;0.80;;;0.80;;
10418;SDS011;5256;48.728;9.140;2024-01-07T04:59:47;0.80;;;0.80;;
10418;SDS011;5256;48.728;9.140;2024-01-07T05:02:13;0.80;;;0.80;;
10418;SDS011;5256;48.728;9.140;2024-01-07T05:04:39;0.80;;;0.80;;
10418;SDS011;5256;48.728;9.140;2024-01-07T05:07:05;0.90;;;0.90;;
10418;SDS011;5256;48.728;9.140;2024-01-07T05:09:31;0.90;;;0.90;;
10418;SDS011;5256;48.728;9.140;2024-01-07T05:11:58;0.80;;;0.80;;
10418;SDS011;5256;48.728;9.140;2024-01-07T05:14:23;0.80;;;0.80;;
10418;SDS011;5256;48.728;9.140;2024-01-07T05:16:49;0.90;;;0.90;;
10418;SDS011;5256;48.728;9.140;2024-01-07T05:19:14;0.80;;;0.80;;
10418;SDS011;5256;48.728;9.140;2024-01-07T05:21:40;0.80;;;0.80;;
10418;SDS011;5256;48.728;9.140;2024-01-07T05:24:05;0.80;;;0.80;;
10418;SDS011;5256;48.728;9.140;2024-01-07T05:26:37;0.87;;;0.87;;
10418;SDS011;5256;48.728;9.140;2024-01-07T05:29:07;0.80;;;0.80;;
10418;SDS011;5256;48.728;9.140;2024-01-07T05:31:32;0.80;;;0.80;;
10418;SDS011;5256;48.728;9.140;2024-01-07T05:33:58;0.97;;;0.97;;
10418;SDS011;5256;48.728;9.140;2024-01-07T05:36:23;0.83;;;0.83;;
10418;SDS011;5256;48.728;9.140;2024-01-07T05:38:49;0.80;;;0.80;;
10418;SDS011;5256;48.728;9.140;2024-01-07T05:41:15;0.80;;;0.80;;
10418;SDS011;5256;48.728;9.140;2024-01-07T05:43:40;0.80;;;0.80;;
10418;SDS011;5256;48.728;9.140;2024-01-07T05:46:06;0.90;;;0.90;;
10418;SDS011;5256;48.728;9.140;2024-01-07T05:48:40;0.80;;;0.80;;
10418;SDS011;5256;48.728;9.140;2024-01-07T05:51:10;0.90;;;0.90;;
10418;SDS011;5256;48.728;9.140;2024-01-07T05:53:36;0.80;;;0.80;;
10418;SDS011;5256;48.728;9.140;2024-01-07T05:56:01;0.80;;;0.80;;
10418;SDS011;5256;48.728;9.140;2024-01-07T05:58:27;0.80;;;0.80;;
10418;SDS011;5256;48.728;9.140;2024-01-07T06:00:53;0.80;;;0.80;;
10418;SDS011;5256;48.728;9.140;2024-01-07T06:03:19;0.80;;;0.80;;
10418;SDS011;5256;48.728;9.140;2024-01-07T06:05:45;0.83;;;0.83;;
10418;SDS011;5256;48.728;9.140;2024-01-07T06:08:10;0.80;;;0.80;;
10418;SDS011;5256;48.728;9.140;2024-01-07T06:10:36;0.80;;;0.80;;
10418;SDS011;5256;48.728;9.140;2024-01-07T06:13:02;0.90;;;0.90;;
10418;SDS011;5256;48.728;9.140;2024-01-07T06:15:28;0.83;;;0.83;;
10418;SDS011;5256;48.728;9.140;2024-01-07T06:17:54;0.80;;;0.80;;
10418;SDS011;5256;48.728;9.140;2024-01-07T06:20:20;0.70;;;0.70;;
10418;SDS011;5256;48.728;9.140;2024-01-07T06:22:46;0.90;;;0.90;;
10418;SDS011;5256;48.728;9.140;2024-01-07T06:25:11;0.80;;;0.80;;
10418;SDS011;5256;48.728;9.140;2024-01-07T06:27:40;0.90;;;0.90;;
10418;SDS011;5256;48.728;9.140;2024-01-07T06:30:06;0.90;;;0.90;;
10418;SDS011;5256;48.728;9.140;2024-01-07T06:32:32;0.80;;;0.80;;
10418;SDS011;5256;48.728;9.140;2024-01-07T06:34:58;0.80;;;0.80;;
10418;SDS011;5256;48.728;9.140;2024-01-07T06:37:24;0.90;;;0.90;;
10418;SDS011;5256;48.728;9.140;2024-01-07T06:39:50;0.80;;;0.80;;
10418;SDS011;5256;48.728;9.140;2024-01-07T06:42:16;0.90;;;0.90;;
10418;SDS011;5256;48.728;9.140;2024-01-07T06:44:42;0.90;;;0.90;;
10418;SDS011;5256;48.728;9.140;2024-01-07T06:47:07;0.80;;;0.80;;
10418;SDS011;5256;48.728;9.140;2024-01-07T06:49:33;0.87;;;0.87;;
10418;SDS011;5256;48.728;9.140;2024-01-07T06:51:58;0.80;;;0.80;;
10418;SDS011;5256;48.728;9.140;2024-01-07T06:54:24;0.80;;;0.80;;
10418;SDS011;5256;48.728;9.140;2024-01-07T06:56:50;0.80;;;0.80;;
10418;SDS011;5256;48.728;9.140;2024-01-07T06:59:16;0.80;;;0.80;;
10418;SDS011;5256;48.728;9.140;2024-01-07T07:01:41;0.80;;;0.80;;
10418;SDS011;5256;48.728;9.140;2024-01-07T07:04:07;0.90;;;0.90;;
10418;SDS011;5256;48.728;9.140;2024-01-07T07:06:32;0.80;;;0.80;;
10418;SDS011;5256;48.728;9.140;2024-01-07T07:08:59;0.87;;;0.87;;
10418;SDS011;5256;48.728;9.140;2024-01-07T07:11:25;0.80;;;0.80;;
10418;SDS011;5256;48.728;9.140;2024-01-07T07:13:50;0.80;;;0.80;;
10418;SDS011;5256;48.728;9.140;2024-01-07T07:16:16;0.80;;;0.80;;
10418;SDS011;5256;48.728;9.140;2024-01-07T07:18:41;0.83;;;0.83;;
10418;SDS011;5256;48.728;9.140;2024-01-07T07:21:07;0.90;;;0.90;;
10418;SDS011;5256;48.728;9.140;2024-01-07T07:23:32;0.80;;;0.80;;
10418;SDS011;5256;48.728;9.140;2024-01-07T07:25:58;0.90;;;0.90;;
10418;SDS011;5256;48.728;9.140;2024-01-07T07:28:23;0.80;;;0.80;;
10418;SDS011;5256;48.728;9.140;2024-01-07T07:30:49;0.80;;;0.80;;
10418;SDS011;5256;48.728;9.140;2024-01-07T07:33:14;0.83;;;0.83;;
10418;SDS011;5256;48.728;9.140;2024-01-07T07:35:40;0.90;;;0.90;;
10418;SDS011;5256;48.728;9.140;2024-01-07T07:38:06;0.80;;;0.80;;
10418;SDS011;5256;48.728;9.140;2024-01-07T07:40:32;0.80;;;0.80;;
10418;SDS011;5256;48.728;9.140;2024-01-07T07:42:58;0.90;;;0.90;;
10418;SDS011;5256;48.728;9.140;2024-01-07T07:45:23;0.80;;;0.80;;
10418;SDS011;5256;48.728;9.140;2024-01-07T07:47:49;0.80;;;0.80;;
10418;SDS011;5256;48.728;9.140;2024-01-07T07:50:14;0.90;;;0.90;;
10418;SDS011;5256;48.728;9.140;2024-01-07T07:52:43;0.90;;;0.90;;
10418;SDS011;5256;48.728;9.140;2024-01-07T07:55:09;0.80;;;0.80;;
10418;SDS011;5256;48.728;9.140;2024-01-07T07:57:35;0.90;;;0.90;;
10418;SDS011;5256;48.728;9.140;2024-01-07T08:00:02;0.80;;;0.80;;
10418;SDS011;5256;48.728;9.140;2024-01-07T08:02:30;0.83;;;0.83;;
10418;SDS011;5256;48.728;9.140;2024-01-07T08:04:55;0.90;;;0.90;;
10418;SDS011;5256;48.728;9.140;2024-01-07T08:07:21;0.90;;;0.90;;
10418;SDS011;5256;48.728;9.140;2024-01-07T08:09:46;1.00;;;1.00;;
10418;SDS011;5256;48.728;9.140;2024-01-07T08:12:12;0.90;;;0.90;;
10418;SDS011;5256;48.728;9.140;2024-01-07T08:14:38;1.00;;;1.00;;
10418;SDS011;5256;48.728;9.140;2024-01-07T08:17:06;1.00;;;1.00;;
10418;SDS011;5256;48.728;9.140;2024-01-07T08:19:32;0.90;;;0.90;;
10418;SDS011;5256;48.728;9.140;2024-01-07T08:21:58;0.80;;;0.80;;
10418;SDS011;5256;48.728;9.140;2024-01-07T08:24:23;0.90;;;0.90;;
10418;SDS011;5256;48.728;9.140;2024-01-07T08:26:49;0.90;;;0.90;;
10418;SDS011;5256;48.728;9.140;2024-01-07T08:29:14;0.90;;;0.90;;
10418;SDS011;5256;48.728;9.140;2024-01-07T08:31:40;1.00;;;1.00;;
10418;SDS011;5256;48.728;9.140;2024-01-07T08:34:07;0.83;;;0.83;;
10418;SDS011;5256;48.728;9.140;2024-01-07T08:36:33;0.90;;;0.90;;
10418;SDS011;5256;48.728;9.140;2024-01-07T08:38:58;0.80;;;0.80;;
10418;SDS011;5256;48.728;9.140;2024-01-07T08:41:25;0.90;;;0.90;;
10418;SDS011;5256;48.728;9.140;2024-01-07T08:43:50;1.00;;;1.00;;
10418;SDS011;5256;48.728;9.140;2024-01-07T08:46:16;0.90;;;0.90;;
10418;SDS011;5256;48.728;9.140;2024-01-07T08:48:42;1.00;;;1.00;;
10418;SDS011;5256;48.728;9.140;2024-01-07T08:51:07;1.00;;;1.00;;
10418;SDS011;5256;48.728;9.140;2024-01-07T08:53:33;0.90;;;0.90;;
10418;SDS011;5256;48.728;9.140;2024-01-07T08:55:59;0.97;;;0.97;;
10418;SDS011;5256;48.728;9.140;2024-01-07T08:58:24;0.90;;;0.90;;
10418;SDS011;5256;48.728;9.140;2024-01-07T09:00:50;0.80;;;0.80;;
10418;SDS011;5256;48.728;9.140;2024-01-07T09:03:15;0.90;;;0.90;;
10418;SDS011;5256;48.728;9.140;2024-01-07T09:05:41;0.90;;;0.90;;
10418;SDS011;5256;48.728;9.140;2024-01-07T09:08:06;0.90;;;0.90;;
10418;SDS011;5256;48.728;9.140;2024-01-07T09:10:32;0.90;;;0.90;;
10418;SDS011;5256;48.728;9.140;2024-01-07T09:12:58;0.97;;;0.97;;
10418;SDS011;5256;48.728;9.140;2024-01-07T09:15:25;0.90;;;0.90;;
10418;SDS011;5256;48.728;9.140;2024-01-07T09:17:52;1.00;;;1.00;;
10418;SDS011;5256;48.728;9.140;2024-01-07T09:20:18;0.90;;;0.90;;
10418;SDS011;5256;48.728;9.140;2024-01-07T09:22:44;0.90;;;0.90;;
10418;SDS011;5256;48.728;9.140;2024-01-07T09:25:10;0.87;;;0.87;;
10418;SDS011;5256;48.728;9.140;2024-01-07T09:27:36;0.97;;;0.97;;
10418;SDS011;5256;48.728;9.140;2024-01-07T09:30:02;0.90;;;0.90;;
10418;SDS011;5256;48.728;9.140;2024-01-07T09:32:28;0.90;;;0.90;;
10418;SDS011;5256;48.728;9.140;2024-01-07T09:34:53;0.90;;;0.90;;
10418;SDS011;5256;48.728;9.140;2024-01-07T09:37:19;1.00;;;1.00;;
10418;SDS011;5256;48.728;9.140;2024-01-07T09:39:44;0.80;;;0.80;;
10418;SDS011;5256;48.728;9.140;2024-01-07T09:42:14;0.90;;;0.90;;
10418;SDS011;5256;48.728;9.140;2024-01-07T09:44:41;0.90;;;0.90;;
10418;SDS011;5256;48.728;9.140;2024-01-07T09:47:11;1.00;;;1.00;;
10418;SDS011;5256;48.728;9.140;2024-01-07T09:49:38;1.00;;;1.00;;
10418;SDS011;5256;48.728;9.140;2024-01-07T09:52:04;0.90;;;0.90;;
10418;SDS011;5256;48.728;9.140;2024-01-07T09:54:30;1.00;;;1.00;;
10418;SDS011;5256;48.728;9.140;2024-01-07T09:57:03;1.00;;;1.00;;
10418;SDS011;5256;48.728;9.140;2024-01-07T09:59:33;0.80;;;0.80;;
10418;SDS011;5256;48.728;9.140;2024-01-07T10:01:59;0.93;;;0.93;;
10418;SDS011;5256;48.728;9.140;2024-01-07T10:04:25;0.90;;;0.90;;
10418;SDS011;5256;48.728;9.140;2024-01-07T10:07:01;0.90;;;0.90;;
10418;SDS011;5256;48.728;9.140;2024-01-07T10:09:30;0.90;;;0.90;;
10418;SDS011;5256;48.728;9.140;2024-01-07T10:11:57;0.90;;;0.90;;
10418;SDS011;5256;48.728;9.140;2024-01-07T10:14:25;0.90;;;0.90;;
10418;SDS011;5256;48.728;9.140;2024-01-07T10:16:51;0.90;;;0.90;;
10418;SDS011;5256;48.728;9.140;2024-01-07T10:19:24;0.90;;;0.90;;
10418;SDS011;5256;48.728;9.140;2024-01-07T10:22:03;1.10;;;1.10;;
10418;SDS011;5256;48.728;9.140;2024-01-07T10:24:39;1.00;;;1.00;;
10418;SDS011;5256;48.728;9.140;2024-01-07T10:27:06;0.90;;;0.90;;
10418;SDS011;5256;48.728;9.140;2024-01-07T10:29:33;0.90;;;0.90;;
10418;SDS011;5256;48.728;9.140;2024-01-07T10:31:59;0.90;;;0.90;;
10418;SDS011;5256;48.728;9.140;2024-01-07T10:34:28;0.90;;;0.90;;
10418;SDS011;5256;48.728;9.140;2024-01-07T10:36:56;0.90;;;0.90;;
10418;SDS011;5256;48.728;9.140;2024-01-07T10:39:24;0.83;;;0.83;;
10418;SDS011;5256;48.728;9.140;2024-01-07T10:41:50;0.90;;;0.90;;
10418;SDS011;5256;48.728;9.140;2024-01-07T10:44:18;0.90;;;0.90;;
10418;SDS011;5256;48.728;9.140;2024-01-07T10:46:45;0.90;;;0.90;;
10418;SDS011;5256;48.728;9.140;2024-01-07T10:49:19;1.00;;;1.00;;
10418;SDS011;5256;48.728;9.140;2024-01-07T10:51:47;0.83;;;0.83;;
10418;SDS011;5256;48.728;9.140;2024-01-07T10:54:20;0.93;;;0.93;;
10418;SDS011;5256;48.728;9.140;2024-01-07T10:56:48;1.00;;;1.00;;
10418;SDS011;5256;48.728;9.140;2024-01-07T10:59:18;1.00;;;1.00;;
10418;SDS011;5256;48.728;9.140;2024-01-07T11:01:45;1.00;;;1.00;;
10418;SDS011;5256;48.728;9.140;2024-01-07T11:04:15;0.90;;;0.90;;
10418;SDS011;5256;48.728;9.140;2024-01-07T11:09:33;1.00;;;1.00;;
10418;SDS011;5256;48.728;9.140;2024-01-07T11:12:16;1.00;;;1.00;;
10418;SDS011;5256;48.728;9.140;2024-01-07T11:14:42;1.00;;;1.00;;
10418;SDS011;5256;48.728;9.140;2024-01-07T11:17:39;0.60;;;0.60;;
10418;SDS011;5256;48.728;9.140;2024-01-07T11:20:21;0.80;;;0.80;;
10418;SDS011;5256;48.728;9.140;2024-01-07T11:22:47;0.90;;;0.90;;
10418;SDS011;5256;48.728;9.140;2024-01-07T11:25:29;1.00;;;1.00;;
10418;SDS011;5256;48.728;9.140;2024-01-07T11:27:57;0.90;;;0.90;;
10418;SDS011;5256;48.728;9.140;2024-01-07T11:30:23;1.07;;;1.07;;
10418;SDS011;5256;48.728;9.140;2024-01-07T11:32:56;0.90;;;0.90;;
10418;SDS011;5256;48.728;9.140;2024-01-07T11:38:20;1.00;;;1.00;;
10418;SDS011;5256;48.728;9.140;2024-01-07T11:40:46;1.00;;;1.00;;
10418;SDS011;5256;48.728;9.140;2024-01-07T11:43:13;1.00;;;1.00;;
10418;SDS011;5256;48.728;9.140;2024-01-07T11:45:39;1.10;;;1.10;;
10418;SDS011;5256;48.728;9.140;2024-01-07T11:48:05;0.90;;;0.90;;
10418;SDS011;5256;48.728;9.140;2024-01-07T11:50:31;1.00;;;1.00;;
10418;SDS011;5256;48.728;9.140;2024-01-07T11:52:56;1.00;;;1.00;;
10418;SDS011;5256;48.728;9.140;2024-01-07T11:55:22;1.00;;;1.00;;
10418;SDS011;5256;48.728;9.140;2024-01-07T11:57:48;0.90;;;0.90;;
10418;SDS011;5256;48.728;9.140;2024-01-07T12:00:14;1.00;;;1.00;;
10418;SDS011;5256;48.728;9.140;2024-01-07T12:02:39;1.00;;;1.00;;
10418;SDS011;5256;48.728;9.140;2024-01-07T12:05:05;1.00;;;1.00;;
10418;SDS011;5256;48.728;9.140;2024-01-07T12:07:31;1.00;;;1.00;;
10418;SDS011;5256;48.728;9.140;2024-01-07T12:09:57;1.10;;;1.10;;
10418;SDS011;5256;48.728;9.140;2024-01-07T12:12:23;1.00;;;1.00;;
10418;SDS011;5256;48.728;9.140;2024-01-07T12:14:49;1.10;;;1.10;;
10418;SDS011;5256;48.728;9.140;2024-01-07T12:17:18;0.90;;;0.90;;
10418;SDS011;5256;48.728;9.140;2024-01-07T12:19:43;1.00;;;1.00;;
10418;SDS011;5256;48.728;9.140;2024-01-07T12:22:09;1.00;;;1.00;;
10418;SDS011;5256;48.728;9.140;2024-01-07T12:24:34;1.00;;;1.00;;
10418;SDS011;5256;48.728;9.140;2024-01-07T12:27:04;1.00;;;1.00;;
10418;SDS011;5256;48.728;9.140;2024-01-07T12:29:30;0.90;;;0.90;;
10418;SDS011;5256;48.728;9.140;2024-01-07T12:31:55;0.90;;;0.90;;
10418;SDS011;5256;48.728;9.140;2024-01-07T12:34:21;1.00;;;1.00;;
10418;SDS011;5256;48.728;9.140;2024-01-07T12:36:50;0.97;;;0.97;;
10418;SDS011;5256;48.728;9.140;2024-01-07T12:39:16;1.00;;;1.00;;
10418;SDS011;5256;48.728;9.140;2024-01-07T12:41:43;1.00;;;1.00;;
10418;SDS011;5256;48.728;9.140;2024-01-07T12:44:09;1.00;;;1.00;;
10418;SDS011;5256;48.728;9.140;2024-01-07T12:46:35;1.00;;;1.00;;
10418;SDS011;5256;48.728;9.140;2024-01-07T12:49:00;1.00;;;1.00;;
10418;SDS011;5256;48.728;9.140;2024-01-07T12:51:26;1.00;;;1.00;;
10418;SDS011;5256;48.728;9.140;2024-01-07T12:53:51;1.00;;;1.00;;
10418;SDS011;5256;48.728;9.140;2024-01-07T12:56:17;1.00;;;1.00;;
10418;SDS011;5256;48.728;9.140;2024-01-07T12:58:44;1.00;;;1.00;;
10418;SDS011;5256;48.728;9.140;2024-01-07T13:01:10;1.00;;;1.00;;
10418;SDS011;5256;48.728;9.140;2024-01-07T13:03:35;1.00;;;1.00;;
10418;SDS011;5256;48.728;9.140;2024-01-07T13:06:01;1.00;;;1.00;;
10418;SDS011;5256;48.728;9.140;2024-01-07T13:08:27;1.00;;;1.00;;
10418;SDS011;5256;48.728;9.140;2024-01-07T13:10:53;1.00;;;1.00;;
10418;SDS011;5256;48.728;9.140;2024-01-07T13:13:20;1.00;;;1.00;;
10418;SDS011;5256;48.728;9.140;2024-01-07T13:15:45;1.10;;;1.10;;
10418;SDS011;5256;48.728;9.140;2024-01-07T13:18:11;1.00;;;1.00;;
10418;SDS011;5256;48.728;9.140;2024-01-07T13:20:37;1.00;;;1.00;;
10418;SDS011;5256;48.728;9.140;2024-01-07T13:23:04;1.00;;;1.00;;
10418;SDS011;5256;48.728;9.140;2024-01-07T13:25:30;1.00;;;1.00;;
10418;SDS011;5256;48.728;9.140;2024-01-07T13:27:56;0.90;;;0.90;;
10418;SDS011;5256;48.728;9.140;2024-01-07T13:30:22;1.00;;;1.00;;
10418;SDS011;5256;48.728;9.140;2024-01-07T13:32:48;1.00;;;1.00;;
10418;SDS011;5256;48.728;9.140;2024-01-07T13:35:14;0.90;;;0.90;;
10418;SDS011;5256;48.728;9.140;2024-01-07T13:37:40;1.00;;;1.00;;
10418;SDS011;5256;48.728;9.140;2024-01-07T13:40:08;1.00;;;1.00;;
10418;SDS011;5256;48.728;9.140;2024-01-07T13:42:35;1.10;;;1.10;;
10418;SDS011;5256;48.728;9.140;2024-01-07T13:45:01;1.00;;;1.00;;
10418;SDS011;5256;48.728;9.140;2024-01-07T13:47:27;1.00;;;1.00;;
10418;SDS011;5256;48.728;9.140;2024-01-07T13:49:53;0.90;;;0.90;;
10418;SDS011;5256;48.728;9.140;2024-01-07T13:52:19;1.00;;;1.00;;
10418;SDS011;5256;48.728;9.140;2024-01-07T13:54:45;1.13;;;1.13;;
10418;SDS011;5256;48.728;9.140;2024-01-07T13:57:10;1.00;;;1.00;;
10418;SDS011;5256;48.728;9.140;2024-01-07T13:59:37;1.10;;;1.10;;
10418;SDS011;5256;48.728;9.140;2024-01-07T14:02:03;1.10;;;1.10;;
10418;SDS011;5256;48.728;9.140;2024-01-07T14:04:30;1.10;;;1.10;;
10418;SDS011;5256;48.728;9.140;2024-01-07T14:06:56;1.00;;;1.00;;
10418;SDS011;5256;48.728;9.140;2024-01-07T14:09:22;1.10;;;1.10;;
10418;SDS011;5256;48.728;9.140;2024-01-07T14:11:48;1.10;;;1.10;;
10418;SDS011;5256;48.728;9.140;2024-01-07T14:14:13;1.20;;;1.20;;
10418;SDS011;5256;48.728;9.140;2024-01-07T14:16:39;1.20;;;1.20;;
10418;SDS011;5256;48.728;9.140;2024-01-07T14:19:05;1.00;;;1.00;;
10418;SDS011;5256;48.728;9.140;2024-01-07T14:21:31;1.00;;;1.00;;
10418;SDS011;5256;48.728;9.140;2024-01-07T14:23:57;1.03;;;1.03;;
10418;SDS011;5256;48.728;9.140;2024-01-07T14:26:23;1.10;;;1.10;;
10418;SDS011;5256;48.728;9.140;2024-01-07T14:28:51;1.10;;;1.10;;
10418;SDS011;5256;48.728;9.140;2024-01-07T14:31:17;1.10;;;1.10;;
10418;SDS011;5256;48.728;9.140;2024-01-07T14:33:43;1.10;;;1.10;;
10418;SDS011;5256;48.728;9.140;2024-01-07T14:36:09;1.03;;;1.03;;
10418;SDS011;5256;48.728;9.140;2024-01-07T14:38:41;0.93;;;0.93;;
10418;SDS011;5256;48.728;9.140;2024-01-07T14:41:12;1.00;;;1.00;;
10418;SDS011;5256;48.728;9.140;2024-01-07T14:43:40;1.00;;;1.00;;
10418;SDS011;5256;48.728;9.140;2024-01-07T14:46:06;0.90;;;0.90;;
10418;SDS011;5256;48.728;9.140;2024-01-07T14:48:33;1.10;;;1.10;;
10418;SDS011;5256;48.728;9.140;2024-01-07T14:50:59;1.07;;;1.07;;
10418;SDS011;5256;48.728;9.140;2024-01-07T14:53:24;1.10;;;1.10;;
10418;SDS011;5256;48.728;9.140;2024-01-07T14:55:51;1.00;;;1.00;;
10418;SDS011;5256;48.728;9.140;2024-01-07T14:58:16;1.00;;;1.00;;
10418;SDS011;5256;48.728;9.140;2024-01-07T15:00:43;1.10;;;1.10;;